createdAt,value
2022-09-12T00:00:07.333Z,27.50
2022-09-12T00:02:35.103Z,26.90
2022-09-12T00:05:02.861Z,27.90
2022-09-12T00:07:30.674Z,35.37
2022-09-12T00:09:58.573Z,30.50
2022-09-12T00:12:27.675Z,27.90
2022-09-12T00:14:55.422Z,30.43
2022-09-12T00:17:23.178Z,26.27
2022-09-12T00:19:50.945Z,26.47
2022-09-12T00:22:18.851Z,29.63
2022-09-12T00:24:46.734Z,33.27
2022-09-12T00:27:14.478Z,35.30
2022-09-12T00:29:43.607Z,37.67
2022-09-12T00:32:11.361Z,39.03
2022-09-12T00:34:39.191Z,36.90
2022-09-12T00:37:06.994Z,36.00
2022-09-12T00:39:35.011Z,32.10
2022-09-12T00:42:03.016Z,31.83
2022-09-12T00:44:48.459Z,28.83
2022-09-12T00:47:21.944Z,28.77
2022-09-12T00:49:53.041Z,29.83
2022-09-12T00:52:27.724Z,27.17
2022-09-12T00:55:00.777Z,31.57
2022-09-12T00:57:33.552Z,25.10
2022-09-12T01:00:11.107Z,27.40
2022-09-12T01:02:39.105Z,29.40
2022-09-12T01:05:08.045Z,25.97
2022-09-12T01:07:40.012Z,26.73
2022-09-12T01:10:10.261Z,25.30
2022-09-12T01:12:40.550Z,29.50
2022-09-12T01:15:10.819Z,29.90
2022-09-12T01:17:52.205Z,27.33
2022-09-12T01:20:53.247Z,30.37
2022-09-12T01:24:05.881Z,28.63
2022-09-12T01:27:18.036Z,27.13
2022-09-12T01:30:02.602Z,27.07
2022-09-12T01:32:43.668Z,24.83
2022-09-12T01:35:22.920Z,29.73
2022-09-12T01:38:01.971Z,28.10
2022-09-12T01:40:35.222Z,35.17
2022-09-12T01:43:09.678Z,29.77
2022-09-12T01:45:46.095Z,27.27
2022-09-12T01:48:20.629Z,26.53
2022-09-12T01:50:53.458Z,31.83
2022-09-12T01:53:26.736Z,29.10
2022-09-12T01:56:01.515Z,33.30
2022-09-12T01:58:37.304Z,30.60
2022-09-12T02:01:09.454Z,34.23
2022-09-12T02:03:45.528Z,32.40
2022-09-12T02:06:19.817Z,33.47
2022-09-12T02:08:52.922Z,30.17
2022-09-12T02:11:21.448Z,31.67
2022-09-12T02:13:56.054Z,34.73
2022-09-12T02:16:30.367Z,31.70
2022-09-12T02:19:06.275Z,31.07
2022-09-12T02:21:38.003Z,28.03
2022-09-12T02:24:08.689Z,30.57
2022-09-12T02:26:42.547Z,30.87
2022-09-12T02:29:10.692Z,26.27
2022-09-12T02:31:44.067Z,24.53
2022-09-12T02:34:27.746Z,28.90
2022-09-12T02:37:06.744Z,30.87
2022-09-12T02:39:35.323Z,32.47
2022-09-12T02:42:04.751Z,28.47
2022-09-12T02:44:34.497Z,27.80
2022-09-12T02:47:06.526Z,28.03
2022-09-12T02:49:35.727Z,30.10
2022-09-12T02:52:04.552Z,32.83
2022-09-12T02:54:32.442Z,29.90
2022-09-12T02:57:00.211Z,26.23
2022-09-12T02:59:28.550Z,28.27
2022-09-12T03:02:16.734Z,25.33
2022-09-12T03:05:11.789Z,27.87
2022-09-12T03:08:12.585Z,22.23
2022-09-12T03:10:51.527Z,24.03
2022-09-12T03:13:24.848Z,25.10
2022-09-12T03:16:05.090Z,22.00
2022-09-12T03:18:50.177Z,21.23
2022-09-12T03:21:26.788Z,27.30
2022-09-12T03:24:06.149Z,24.97
2022-09-12T03:26:39.357Z,25.27
2022-09-12T03:29:08.798Z,25.83
2022-09-12T03:31:36.575Z,24.00
2022-09-12T03:34:05.096Z,25.80
2022-09-12T03:36:34.294Z,28.83
2022-09-12T03:39:02.217Z,31.53
2022-09-12T03:41:29.955Z,28.13
2022-09-12T03:43:57.788Z,26.73
2022-09-12T03:46:25.618Z,26.43
2022-09-12T03:48:53.548Z,26.37
2022-09-12T03:51:21.532Z,25.73
2022-09-12T03:53:50.737Z,24.30
2022-09-12T03:56:19.359Z,24.13
2022-09-12T03:58:47.839Z,24.00
2022-09-12T04:01:18.246Z,21.20
2022-09-12T04:03:47.918Z,27.07
2022-09-12T04:06:17.619Z,25.47
2022-09-12T04:08:48.764Z,20.97
2022-09-12T04:11:19.626Z,26.00
2022-09-12T04:13:47.902Z,25.20
2022-09-12T04:16:17.472Z,24.43
2022-09-12T04:18:45.803Z,30.50
2022-09-12T04:21:15.782Z,26.43
2022-09-12T04:23:43.908Z,30.00
2022-09-12T04:26:13.599Z,26.17
2022-09-12T04:28:42.798Z,31.03
2022-09-12T04:31:15.468Z,25.53
2022-09-12T04:33:43.572Z,24.00
2022-09-12T04:36:16.614Z,21.57
2022-09-12T04:38:45.535Z,23.73
2022-09-12T04:41:14.449Z,20.67
2022-09-12T04:43:46.357Z,22.97
2022-09-12T04:46:16.600Z,24.10
2022-09-12T04:48:44.841Z,22.63
2022-09-12T04:51:18.835Z,21.80
2022-09-12T04:53:50.219Z,20.10
2022-09-12T04:56:18.660Z,20.60
2022-09-12T04:58:48.629Z,22.83
2022-09-12T05:01:18.415Z,20.80
2022-09-12T05:03:48.304Z,22.03
2022-09-12T05:06:18.105Z,25.53
2022-09-12T05:08:46.269Z,21.27
2022-09-12T05:11:15.858Z,21.90
2022-09-12T05:13:43.893Z,24.93
2022-09-12T05:16:15.522Z,25.93
2022-09-12T05:18:45.091Z,26.57
2022-09-12T05:21:16.377Z,28.37
2022-09-12T05:23:44.279Z,25.00
2022-09-12T05:26:15.328Z,26.87
2022-09-12T05:28:43.675Z,30.43
2022-09-12T05:31:15.371Z,31.80
2022-09-12T05:33:44.786Z,25.60
2022-09-12T05:36:14.832Z,32.53
2022-09-12T05:38:42.909Z,26.90
2022-09-12T05:41:17.574Z,34.43
2022-09-12T05:43:48.312Z,25.83
2022-09-12T05:46:20.281Z,40.97
2022-09-12T05:48:52.530Z,41.40
2022-09-12T05:51:25.440Z,35.17
2022-09-12T05:53:55.346Z,44.07
2022-09-12T05:56:25.193Z,34.40
2022-09-12T05:58:56.117Z,37.90
2022-09-12T06:01:25.932Z,47.30
2022-09-12T06:03:55.613Z,45.13
2022-09-12T06:06:25.981Z,39.43
2022-09-12T06:08:56.751Z,36.33
2022-09-12T06:11:27.316Z,33.53
2022-09-12T06:13:56.312Z,32.57
2022-09-12T06:16:28.147Z,29.07
2022-09-12T06:18:57.567Z,23.90
2022-09-12T06:21:26.507Z,16.40
2022-09-12T06:23:55.411Z,17.07
2022-09-12T06:26:25.684Z,17.27
2022-09-12T06:28:54.751Z,16.93
2022-09-12T06:31:26.123Z,13.57
2022-09-12T06:33:55.256Z,16.70
2022-09-12T06:36:25.365Z,11.90
2022-09-12T06:38:58.595Z,11.23
2022-09-12T06:41:26.966Z,8.97
2022-09-12T06:43:55.346Z,9.50
2022-09-12T06:46:23.716Z,9.03
2022-09-12T06:48:53.045Z,9.07
2022-09-12T06:51:21.843Z,10.50
2022-09-12T06:53:50.564Z,8.93
2022-09-12T06:56:19.935Z,11.03
2022-09-12T06:58:49.232Z,12.43
2022-09-12T07:01:19.130Z,9.97
2022-09-12T07:03:50.006Z,8.73
2022-09-12T07:06:24.181Z,10.10
2022-09-12T07:08:52.470Z,11.00
2022-09-12T07:11:22.036Z,8.93
2022-09-12T07:13:51.873Z,8.87
2022-09-12T07:16:20.345Z,10.57
2022-09-12T07:18:52.338Z,10.03
2022-09-12T07:21:20.663Z,8.77
2022-09-12T07:23:51.825Z,9.43
2022-09-12T07:26:19.845Z,8.37
2022-09-12T07:28:53.408Z,9.87
2022-09-12T07:31:23.514Z,11.77
2022-09-12T07:33:54.618Z,9.20
2022-09-12T07:36:25.391Z,11.23
2022-09-12T07:38:58.475Z,10.23
2022-09-12T07:41:28.199Z,7.23
2022-09-12T07:43:57.776Z,10.63
2022-09-12T07:46:27.336Z,7.07
2022-09-12T07:48:56.957Z,7.50
2022-09-12T07:51:26.673Z,9.47
2022-09-12T07:53:54.934Z,9.13
2022-09-12T07:56:29.643Z,9.50
2022-09-12T07:58:59.231Z,11.03
2022-09-12T08:01:27.689Z,9.33
2022-09-12T08:03:58.173Z,9.90
2022-09-12T08:06:27.397Z,7.10
2022-09-12T08:08:57.339Z,9.13
2022-09-12T08:11:29.427Z,9.50
2022-09-12T08:13:59.086Z,6.67
2022-09-12T08:16:28.615Z,7.27
2022-09-12T08:18:56.795Z,8.03
2022-09-12T08:21:26.925Z,7.57
2022-09-12T08:23:56.718Z,7.17
2022-09-12T08:26:26.476Z,8.40
2022-09-12T08:28:54.985Z,8.47
2022-09-12T08:31:24.958Z,10.53
2022-09-12T08:33:55.759Z,8.97
2022-09-12T08:36:25.596Z,9.17
2022-09-12T08:38:59.635Z,8.07
2022-09-12T08:41:34.887Z,10.50
2022-09-12T08:44:20.854Z,15.73
2022-09-12T08:46:58.129Z,11.33
2022-09-12T08:49:34.940Z,8.63
2022-09-12T08:52:12.003Z,8.17
2022-09-12T08:54:41.145Z,8.30
2022-09-12T08:57:13.012Z,8.60
2022-09-12T08:59:42.902Z,9.57
2022-09-12T09:02:31.027Z,7.63
2022-09-12T09:05:06.369Z,9.10
2022-09-12T09:08:10.685Z,8.20
2022-09-12T09:10:49.897Z,8.40
2022-09-12T09:13:46.969Z,8.53
2022-09-12T09:16:22.526Z,11.83
2022-09-12T09:18:52.520Z,8.00
2022-09-12T09:21:25.023Z,11.53
2022-09-12T09:24:00.109Z,9.43
2022-09-12T09:26:35.965Z,11.47
2022-09-12T09:29:12.217Z,8.67
2022-09-12T09:31:40.798Z,9.77
2022-09-12T09:34:15.663Z,9.10
2022-09-12T09:36:50.786Z,8.40
2022-09-12T09:39:35.503Z,7.43
2022-09-12T09:42:16.981Z,7.77
2022-09-12T09:44:49.130Z,9.07
2022-09-12T09:47:19.178Z,8.47
2022-09-12T09:49:47.586Z,9.50
2022-09-12T09:52:25.824Z,7.67
2022-09-12T09:54:58.437Z,8.53
2022-09-12T09:57:44.660Z,7.90
2022-09-12T10:00:30.582Z,8.30
2022-09-12T10:03:34.046Z,10.30
2022-09-12T10:06:03.775Z,7.07
2022-09-12T10:08:33.431Z,8.83
2022-09-12T10:11:04.334Z,8.20
2022-09-12T10:13:37.500Z,8.90
2022-09-12T10:16:18.739Z,10.30
2022-09-12T10:18:47.332Z,11.20
2022-09-12T10:21:18.833Z,9.30
2022-09-12T10:23:48.483Z,8.87
2022-09-12T10:26:20.546Z,8.70
2022-09-12T10:28:52.313Z,8.03
2022-09-12T10:31:29.034Z,7.27
2022-09-12T10:33:59.548Z,6.87
2022-09-12T10:36:36.181Z,8.07
2022-09-12T10:39:05.101Z,7.40
2022-09-12T10:41:39.608Z,7.77
2022-09-12T10:44:10.036Z,6.67
2022-09-12T10:46:39.229Z,7.10
2022-09-12T10:49:15.785Z,6.30
2022-09-12T10:51:43.658Z,8.90
2022-09-12T10:54:13.407Z,6.20
2022-09-12T10:56:48.243Z,11.53
2022-09-12T10:59:26.800Z,6.10
2022-09-12T11:02:01.422Z,5.50
2022-09-12T11:04:42.401Z,7.77
2022-09-12T11:07:30.827Z,6.00
2022-09-12T11:10:14.984Z,7.43
2022-09-12T11:12:52.350Z,7.57
2022-09-12T11:15:36.219Z,6.70
2022-09-12T11:18:17.277Z,5.40
2022-09-12T11:21:09.397Z,5.77
2022-09-12T11:24:17.129Z,5.23
2022-09-12T11:27:13.251Z,5.20
2022-09-12T11:29:50.145Z,4.80
2022-09-12T11:32:36.355Z,6.13
2022-09-12T11:35:17.742Z,5.70
2022-09-12T11:38:00.319Z,4.80
2022-09-12T11:40:33.500Z,5.68
2022-09-12T11:43:08.283Z,4.97
2022-09-12T11:45:41.641Z,4.88
2022-09-12T11:48:16.836Z,4.43
2022-09-12T11:50:46.147Z,5.93
2022-09-12T11:53:20.951Z,4.60
2022-09-12T11:55:56.375Z,5.00
2022-09-12T11:58:29.407Z,4.70
2022-09-12T12:01:02.448Z,4.70
2022-09-12T12:03:36.777Z,5.30
2022-09-12T12:06:12.116Z,6.35
2022-09-12T12:08:42.694Z,4.13
2022-09-12T12:11:13.157Z,4.70
2022-09-12T12:13:46.581Z,4.60
2022-09-12T12:16:21.170Z,4.75
2022-09-12T12:18:55.767Z,5.03
2022-09-12T12:21:39.430Z,4.45
2022-09-12T12:24:19.935Z,4.38
2022-09-12T12:27:03.194Z,4.78
2022-09-12T12:29:45.346Z,4.40
2022-09-12T12:32:28.690Z,4.60
2022-09-12T12:35:31.464Z,4.88
2022-09-12T12:38:00.641Z,4.22
2022-09-12T12:40:30.788Z,5.20
2022-09-12T12:43:04.555Z,4.20
2022-09-12T12:46:02.805Z,4.00
2022-09-12T12:48:44.825Z,6.47
2022-09-12T12:51:35.766Z,4.10
2022-09-12T12:54:26.661Z,3.60
2022-09-12T12:57:03.561Z,3.47
2022-09-12T12:59:32.169Z,3.55
2022-09-12T13:02:01.501Z,3.85
2022-09-12T13:04:32.381Z,3.30
2022-09-12T13:07:08.189Z,6.78
2022-09-12T13:09:47.126Z,3.78
2022-09-12T13:12:22.615Z,3.47
2022-09-12T13:14:59.364Z,3.47
2022-09-12T13:17:31.715Z,4.05
2022-09-12T13:20:29.238Z,6.10
2022-09-12T13:22:58.920Z,4.80
2022-09-12T13:25:31.071Z,5.18
2022-09-12T13:28:06.168Z,6.38
2022-09-12T13:30:36.249Z,4.28
2022-09-12T13:33:19.499Z,3.55
2022-09-12T13:36:30.507Z,4.03
2022-09-12T13:39:10.788Z,4.90
2022-09-12T13:42:05.718Z,5.77
2022-09-12T13:44:42.077Z,3.40
2022-09-12T13:47:15.297Z,3.03
2022-09-12T13:49:44.871Z,5.25
2022-09-12T13:52:20.027Z,5.28
2022-09-12T13:54:51.053Z,3.30
2022-09-12T13:57:31.947Z,3.30
2022-09-12T14:00:01.977Z,3.38
2022-09-12T14:02:31.478Z,4.20
2022-09-12T14:05:09.202Z,3.33
2022-09-12T14:07:56.203Z,2.25
2022-09-12T14:10:31.795Z,3.00
2022-09-12T14:13:04.325Z,3.35
2022-09-12T14:15:34.751Z,3.65
2022-09-12T14:18:05.827Z,3.13
2022-09-12T14:20:38.637Z,4.13
2022-09-12T14:23:14.851Z,6.88
2022-09-12T14:25:47.666Z,5.75
2022-09-12T14:28:23.352Z,2.85
2022-09-12T14:31:00.567Z,4.47
2022-09-12T14:33:29.041Z,8.18
2022-09-12T14:36:11.209Z,2.92
2022-09-12T14:38:43.714Z,3.00
2022-09-12T14:41:14.866Z,3.72
2022-09-12T14:43:47.524Z,2.90
2022-09-12T14:46:20.466Z,3.33
2022-09-12T14:48:52.840Z,3.55
2022-09-12T14:51:26.035Z,2.63
2022-09-12T14:53:54.649Z,3.03
2022-09-12T14:56:23.938Z,2.92
2022-09-12T14:58:53.341Z,2.70
2022-09-12T15:01:26.569Z,4.22
2022-09-12T15:03:57.196Z,2.47
2022-09-12T15:06:29.682Z,5.28
2022-09-12T15:09:00.580Z,2.83
2022-09-12T15:11:28.618Z,6.90
2022-09-12T15:13:57.799Z,3.08
2022-09-12T15:16:25.931Z,2.97
2022-09-12T15:18:53.796Z,7.20
2022-09-12T15:21:22.305Z,4.20
2022-09-12T15:23:51.307Z,5.00
2022-09-12T15:26:21.703Z,4.60
2022-09-12T15:29:00.359Z,3.78
2022-09-12T15:31:30.452Z,5.20
2022-09-12T15:33:59.739Z,2.88
2022-09-12T15:36:28.795Z,3.65
2022-09-12T15:38:57.369Z,5.60
2022-09-12T15:41:33.567Z,3.58
2022-09-12T15:44:05.203Z,3.45
2022-09-12T15:46:33.163Z,3.42
2022-09-12T15:49:01.247Z,3.75
2022-09-12T15:51:29.256Z,6.05
2022-09-12T15:53:57.474Z,3.80
2022-09-12T15:56:25.218Z,3.58
2022-09-12T15:59:00.389Z,3.53
2022-09-12T16:01:30.213Z,4.03
2022-09-12T16:03:58.557Z,3.60
2022-09-12T16:06:27.780Z,6.25
2022-09-12T16:08:55.953Z,3.83
2022-09-12T16:11:25.746Z,10.05
2022-09-12T16:13:54.949Z,4.07
2022-09-12T16:16:22.948Z,3.45
2022-09-12T16:18:52.262Z,3.92
2022-09-12T16:21:20.050Z,4.30
2022-09-12T16:23:49.087Z,5.03
2022-09-12T16:26:18.061Z,3.58
2022-09-12T16:28:46.512Z,4.32
2022-09-12T16:31:15.191Z,3.40
2022-09-12T16:33:43.256Z,3.95
2022-09-12T16:36:14.419Z,4.18
2022-09-12T16:38:43.127Z,4.70
2022-09-12T16:41:11.630Z,3.72
2022-09-12T16:43:39.986Z,3.85
2022-09-12T16:46:09.761Z,5.80
2022-09-12T16:48:38.463Z,5.93
2022-09-12T16:51:07.814Z,4.05
2022-09-12T16:53:39.321Z,4.03
2022-09-12T16:56:07.546Z,3.85
2022-09-12T16:58:41.628Z,5.37
2022-09-12T17:01:11.892Z,4.43
2022-09-12T17:03:40.077Z,4.57
2022-09-12T17:06:10.603Z,4.90
2022-09-12T17:08:41.443Z,4.30
2022-09-12T17:11:11.158Z,4.20
2022-09-12T17:14:03.381Z,4.60
2022-09-12T17:16:29.669Z,5.17
2022-09-12T17:19:02.087Z,7.43
2022-09-12T17:21:30.092Z,4.80
2022-09-12T17:24:00.115Z,3.93
2022-09-12T17:26:28.150Z,7.60
2022-09-12T17:28:57.701Z,8.00
2022-09-12T17:31:26.661Z,8.10
2022-09-12T17:36:53.657Z,6.13
2022-09-12T17:39:23.262Z,7.57
2022-09-12T17:41:53.942Z,6.97
2022-09-12T17:44:23.088Z,6.03
2022-09-12T17:46:51.128Z,8.03
2022-09-12T17:49:22.135Z,5.40
2022-09-12T17:51:51.147Z,7.00
2022-09-12T17:54:20.814Z,9.17
2022-09-12T17:56:51.551Z,5.27
2022-09-12T17:59:24.282Z,6.60
2022-09-12T18:02:09.680Z,4.70
2022-09-12T18:04:42.117Z,7.50
2022-09-12T18:07:11.073Z,8.67
2022-09-12T18:09:39.247Z,8.67
2022-09-12T18:12:09.154Z,9.93
2022-09-12T18:14:37.727Z,8.17
2022-09-12T18:17:06.921Z,6.50
2022-09-12T18:19:35.296Z,7.30
2022-09-12T18:22:03.708Z,8.03
2022-09-12T18:24:31.497Z,8.00
2022-09-12T18:26:59.431Z,11.97
2022-09-12T18:29:28.689Z,11.47
2022-09-12T18:31:56.557Z,8.90
2022-09-12T18:34:24.413Z,6.73
2022-09-12T18:36:54.298Z,11.33
2022-09-12T18:39:26.847Z,9.40
2022-09-12T18:41:55.950Z,7.30
2022-09-12T18:44:23.692Z,8.77
2022-09-12T18:46:52.908Z,9.87
2022-09-12T18:49:21.028Z,10.87
2022-09-12T18:51:48.820Z,11.07
2022-09-12T18:54:17.796Z,11.63
2022-09-12T18:56:45.829Z,8.97
2022-09-12T18:59:14.782Z,8.37
2022-09-12T19:01:43.546Z,10.20
2022-09-12T19:04:17.404Z,12.77
2022-09-12T19:06:46.630Z,7.07
2022-09-12T19:09:17.088Z,8.60
2022-09-12T19:11:49.841Z,11.97
2022-09-12T19:14:19.302Z,9.07
2022-09-12T19:16:50.716Z,9.37
2022-09-12T19:19:20.066Z,12.87
2022-09-12T19:21:47.983Z,12.17
2022-09-12T19:24:17.096Z,10.93
2022-09-12T19:26:45.973Z,13.20
2022-09-12T19:29:14.704Z,9.63
2022-09-12T19:31:42.767Z,11.63
2022-09-12T19:34:12.100Z,13.67
2022-09-12T19:36:46.586Z,11.70
2022-09-12T19:39:16.384Z,8.90
2022-09-12T19:41:44.620Z,9.33
2022-09-12T19:44:12.858Z,11.20
2022-09-12T19:46:41.641Z,10.87
2022-09-12T19:49:11.066Z,8.80
2022-09-12T19:51:39.032Z,11.87
2022-09-12T19:54:08.326Z,12.00
2022-09-12T19:56:36.175Z,11.77
2022-09-12T19:59:04.202Z,14.57
2022-09-12T20:01:32.441Z,14.03
2022-09-12T20:04:01.627Z,9.23
2022-09-12T20:06:29.562Z,10.03
2022-09-12T20:08:57.933Z,10.47
2022-09-12T20:11:27.076Z,13.03
2022-09-12T20:13:55.122Z,11.20
2022-09-12T20:16:28.387Z,13.43
2022-09-12T20:18:58.151Z,11.73
2022-09-12T20:21:31.389Z,9.43
2022-09-12T20:24:05.194Z,13.07
2022-09-12T20:26:34.406Z,11.57
2022-09-12T20:29:02.272Z,10.20
2022-09-12T20:31:30.481Z,10.83
2022-09-12T20:33:58.904Z,9.67
2022-09-12T20:36:27.622Z,13.37
2022-09-12T20:38:57.802Z,11.40
2022-09-12T20:41:26.659Z,14.67
2022-09-12T20:43:57.766Z,12.50
2022-09-12T20:46:27.704Z,14.00
2022-09-12T20:48:56.174Z,13.60
2022-09-12T20:51:26.501Z,13.77
2022-09-12T20:53:55.085Z,13.17
2022-09-12T20:56:23.686Z,10.83
2022-09-12T20:58:52.282Z,14.10
2022-09-12T21:01:24.969Z,14.30
2022-09-12T21:03:53.105Z,12.13
2022-09-12T21:06:21.652Z,16.70
2022-09-12T21:08:50.408Z,14.97
2022-09-12T21:11:19.163Z,12.47
2022-09-12T21:13:47.744Z,11.40
2022-09-12T21:16:19.644Z,12.30
2022-09-12T21:18:53.887Z,11.90
2022-09-12T21:21:21.929Z,11.67
2022-09-12T21:23:50.632Z,13.33
2022-09-12T21:26:18.500Z,15.27
2022-09-12T21:28:46.425Z,11.73
2022-09-12T21:31:14.350Z,13.53
2022-09-12T21:33:42.336Z,12.70
2022-09-12T21:36:12.217Z,12.37
2022-09-12T21:38:40.951Z,11.77
2022-09-12T21:41:11.071Z,10.07
2022-09-12T21:43:39.827Z,10.60
2022-09-12T21:46:08.829Z,15.07
2022-09-12T21:48:37.548Z,11.70
2022-09-12T21:51:05.730Z,9.37
2022-09-12T21:53:37.333Z,9.40
2022-09-12T21:56:08.050Z,11.20
2022-09-12T21:58:36.651Z,11.17
2022-09-12T22:01:06.089Z,10.03
2022-09-12T22:03:34.205Z,12.50
2022-09-12T22:06:04.430Z,15.00
2022-09-12T22:08:35.718Z,13.40
2022-09-12T22:11:09.479Z,12.80
2022-09-12T22:13:39.164Z,12.13
2022-09-12T22:16:07.943Z,13.30
2022-09-12T22:18:37.460Z,11.73
2022-09-12T22:21:07.248Z,12.33
2022-09-12T22:23:54.955Z,13.80
2022-09-12T22:26:23.056Z,12.43
2022-09-12T22:28:51.539Z,11.20
2022-09-12T22:31:19.792Z,12.63
2022-09-12T22:33:48.608Z,15.00
2022-09-12T22:36:16.404Z,10.70
2022-09-12T22:38:45.521Z,13.07
2022-09-12T22:41:14.151Z,12.80
2022-09-12T22:43:42.585Z,10.93
2022-09-12T22:46:13.215Z,12.53
2022-09-12T22:48:41.627Z,13.47
2022-09-12T22:51:09.542Z,9.97
2022-09-12T22:53:38.809Z,9.47
2022-09-12T22:56:09.835Z,12.80
2022-09-12T22:58:38.634Z,10.80
2022-09-12T23:01:07.337Z,11.77
2022-09-12T23:03:36.424Z,11.40
2022-09-12T23:06:05.084Z,11.17
2022-09-12T23:08:34.850Z,13.70
2022-09-12T23:11:03.789Z,11.60
2022-09-12T23:13:33.904Z,9.67
2022-09-12T23:16:03.944Z,11.00
2022-09-12T23:18:32.163Z,9.60
2022-09-12T23:21:01.649Z,8.97
2022-09-12T23:23:30.360Z,10.90
2022-09-12T23:26:06.598Z,9.07
2022-09-12T23:28:36.286Z,9.40
2022-09-12T23:31:04.547Z,10.00
2022-09-12T23:33:33.261Z,9.90
2022-09-12T23:36:01.757Z,9.37
2022-09-12T23:38:30.775Z,11.00
2022-09-12T23:40:58.973Z,9.40
2022-09-12T23:43:27.407Z,12.13
2022-09-12T23:45:56.735Z,10.53
2022-09-12T23:48:24.855Z,13.63
2022-09-12T23:50:53.748Z,10.67
2022-09-12T23:53:22.821Z,12.23
2022-09-12T23:55:51.427Z,9.67
2022-09-12T23:58:19.590Z,9.27
